sensor_id;sensor_type;location;lat;lon;timestamp;temperature;humidity
1337;DHT22;662;48.814;9.318;2023-05-18T00:01:58;10.80;56.70
1337;DHT22;662;48.814;9.318;2023-05-18T00:04:24;10.80;56.90
1337;DHT22;662;48.814;9.318;2023-05-18T00:06:50;10.70;57.00
1337;DHT22;662;48.814;9.318;2023-05-18T00:09:25;10.70;57.20
1337;DHT22;662;48.814;9.318;2023-05-18T00:11:51;10.60;57.40
1337;DHT22;662;48.814;9.318;2023-05-18T00:14:17;10.60;57.60
1337;DHT22;662;48.814;9.318;2023-05-18T00:16:43;10.50;57.70
1337;DHT22;662;48.814;9.318;2023-05-18T00:19:09;10.50;57.90
1337;DHT22;662;48.814;9.318;2023-05-18T00:21:34;10.40;58.00
1337;DHT22;662;48.814;9.318;2023-05-18T00:24:00;10.40;58.20
1337;DHT22;662;48.814;9.318;2023-05-18T00:26:26;10.30;58.40
1337;DHT22;662;48.814;9.318;2023-05-18T00:28:52;10.30;58.60
1337;DHT22;662;48.814;9.318;2023-05-18T00:31:17;10.20;58.70
1337;DHT22;662;48.814;9.318;2023-05-18T00:33:43;10.10;58.80
1337;DHT22;662;48.814;9.318;2023-05-18T00:36:11;10.10;59.10
1337;DHT22;662;48.814;9.318;2023-05-18T00:38:37;10.10;59.30
1337;DHT22;662;48.814;9.318;2023-05-18T00:41:02;10.10;59.40
1337;DHT22;662;48.814;9.318;2023-05-18T00:43:28;10.10;59.60
1337;DHT22;662;48.814;9.318;2023-05-18T00:45:53;10.10;59.60
1337;DHT22;662;48.814;9.318;2023-05-18T00:48:19;10.10;59.50
1337;DHT22;662;48.814;9.318;2023-05-18T00:50:45;10.10;59.40
1337;DHT22;662;48.814;9.318;2023-05-18T00:53:11;10.10;59.30
1337;DHT22;662;48.814;9.318;2023-05-18T00:55:37;10.10;59.30
1337;DHT22;662;48.814;9.318;2023-05-18T00:58:02;10.10;59.10
1337;DHT22;662;48.814;9.318;2023-05-18T01:00:29;10.10;59.00
1337;DHT22;662;48.814;9.318;2023-05-18T01:02:55;10.10;58.90
1337;DHT22;662;48.814;9.318;2023-05-18T01:05:21;10.10;59.00
1337;DHT22;662;48.814;9.318;2023-05-18T01:07:47;10.10;59.00
1337;DHT22;662;48.814;9.318;2023-05-18T01:10:16;10.00;58.80
1337;DHT22;662;48.814;9.318;2023-05-18T01:12:57;10.00;58.70
1337;DHT22;662;48.814;9.318;2023-05-18T01:15:31;9.90;59.60
1337;DHT22;662;48.814;9.318;2023-05-18T01:18:24;9.90;59.70
1337;DHT22;662;48.814;9.318;2023-05-18T01:26:33;9.80;59.90
1337;DHT22;662;48.814;9.318;2023-05-18T01:29:04;9.80;59.90
1337;DHT22;662;48.814;9.318;2023-05-18T01:31:31;9.80;59.80
1337;DHT22;662;48.814;9.318;2023-05-18T01:33:57;9.70;59.70
1337;DHT22;662;48.814;9.318;2023-05-18T01:36:23;9.70;59.80
1337;DHT22;662;48.814;9.318;2023-05-18T01:38:49;9.80;60.00
1337;DHT22;662;48.814;9.318;2023-05-18T01:41:28;9.80;60.00
1337;DHT22;662;48.814;9.318;2023-05-18T01:44:08;9.70;60.00
1337;DHT22;662;48.814;9.318;2023-05-18T01:46:43;9.80;59.90
1337;DHT22;662;48.814;9.318;2023-05-18T01:50:02;9.70;59.80
1337;DHT22;662;48.814;9.318;2023-05-18T01:52:31;9.70;59.70
1337;DHT22;662;48.814;9.318;2023-05-18T01:54:59;9.70;59.70
1337;DHT22;662;48.814;9.318;2023-05-18T01:57:27;9.70;59.70
1337;DHT22;662;48.814;9.318;2023-05-18T01:59:53;9.70;59.70
1337;DHT22;662;48.814;9.318;2023-05-18T02:02:20;9.70;59.70
1337;DHT22;662;48.814;9.318;2023-05-18T02:04:45;9.70;59.60
1337;DHT22;662;48.814;9.318;2023-05-18T02:07:11;9.70;59.50
1337;DHT22;662;48.814;9.318;2023-05-18T02:09:37;9.70;59.50
1337;DHT22;662;48.814;9.318;2023-05-18T02:12:02;9.60;59.40
1337;DHT22;662;48.814;9.318;2023-05-18T02:14:28;9.60;59.30
1337;DHT22;662;48.814;9.318;2023-05-18T02:16:54;9.60;59.40
1337;DHT22;662;48.814;9.318;2023-05-18T02:19:21;9.50;59.40
1337;DHT22;662;48.814;9.318;2023-05-18T02:21:49;9.50;59.40
1337;DHT22;662;48.814;9.318;2023-05-18T02:24:15;9.50;59.30
1337;DHT22;662;48.814;9.318;2023-05-18T02:26:42;9.50;59.40
1337;DHT22;662;48.814;9.318;2023-05-18T02:29:08;9.50;59.40
1337;DHT22;662;48.814;9.318;2023-05-18T02:31:36;9.40;59.40
1337;DHT22;662;48.814;9.318;2023-05-18T02:34:02;9.40;59.60
1337;DHT22;662;48.814;9.318;2023-05-18T02:36:28;9.40;59.60
1337;DHT22;662;48.814;9.318;2023-05-18T02:39:05;9.40;59.50
1337;DHT22;662;48.814;9.318;2023-05-18T02:41:31;9.30;59.40
1337;DHT22;662;48.814;9.318;2023-05-18T02:43:57;9.30;59.40
1337;DHT22;662;48.814;9.318;2023-05-18T02:46:23;9.30;59.50
1337;DHT22;662;48.814;9.318;2023-05-18T02:48:49;9.30;59.70
1337;DHT22;662;48.814;9.318;2023-05-18T02:51:14;9.20;59.60
1337;DHT22;662;48.814;9.318;2023-05-18T02:53:40;9.30;59.70
1337;DHT22;662;48.814;9.318;2023-05-18T02:56:08;9.20;59.70
1337;DHT22;662;48.814;9.318;2023-05-18T02:58:34;9.20;59.90
1337;DHT22;662;48.814;9.318;2023-05-18T03:01:00;9.20;60.00
1337;DHT22;662;48.814;9.318;2023-05-18T03:03:28;9.10;59.90
1337;DHT22;662;48.814;9.318;2023-05-18T03:05:53;9.20;60.00
1337;DHT22;662;48.814;9.318;2023-05-18T03:08:20;9.10;60.00
1337;DHT22;662;48.814;9.318;2023-05-18T03:10:47;9.10;60.10
1337;DHT22;662;48.814;9.318;2023-05-18T03:13:13;9.10;60.10
1337;DHT22;662;48.814;9.318;2023-05-18T03:15:39;9.10;60.20
1337;DHT22;662;48.814;9.318;2023-05-18T03:18:05;9.10;60.30
1337;DHT22;662;48.814;9.318;2023-05-18T03:20:31;9.00;60.20
1337;DHT22;662;48.814;9.318;2023-05-18T03:22:57;9.00;60.30
1337;DHT22;662;48.814;9.318;2023-05-18T03:25:22;9.00;60.30
1337;DHT22;662;48.814;9.318;2023-05-18T03:27:51;8.90;60.30
1337;DHT22;662;48.814;9.318;2023-05-18T03:30:18;8.90;60.40
1337;DHT22;662;48.814;9.318;2023-05-18T03:32:45;8.80;60.50
1337;DHT22;662;48.814;9.318;2023-05-18T03:35:12;8.80;60.60
1337;DHT22;662;48.814;9.318;2023-05-18T03:37:38;8.80;60.80
1337;DHT22;662;48.814;9.318;2023-05-18T03:40:14;8.70;60.90
1337;DHT22;662;48.814;9.318;2023-05-18T03:42:40;8.70;61.00
1337;DHT22;662;48.814;9.318;2023-05-18T03:45:07;8.70;61.10
1337;DHT22;662;48.814;9.318;2023-05-18T03:47:33;8.60;61.10
1337;DHT22;662;48.814;9.318;2023-05-18T03:49:59;8.60;61.20
1337;DHT22;662;48.814;9.318;2023-05-18T03:52:25;8.60;61.30
1337;DHT22;662;48.814;9.318;2023-05-18T03:54:50;8.60;61.40
1337;DHT22;662;48.814;9.318;2023-05-18T03:57:17;8.50;61.40
1337;DHT22;662;48.814;9.318;2023-05-18T03:59:44;8.50;61.50
1337;DHT22;662;48.814;9.318;2023-05-18T04:02:10;8.50;61.60
1337;DHT22;662;48.814;9.318;2023-05-18T04:04:37;8.50;61.70
1337;DHT22;662;48.814;9.318;2023-05-18T04:07:06;8.50;62.50
1337;DHT22;662;48.814;9.318;2023-05-18T04:09:32;8.50;62.00
1337;DHT22;662;48.814;9.318;2023-05-18T04:11:58;8.50;62.10
1337;DHT22;662;48.814;9.318;2023-05-18T04:14:24;8.50;62.20
1337;DHT22;662;48.814;9.318;2023-05-18T04:16:52;8.50;62.30
1337;DHT22;662;48.814;9.318;2023-05-18T04:19:18;8.50;62.40
1337;DHT22;662;48.814;9.318;2023-05-18T04:21:44;8.50;62.30
1337;DHT22;662;48.814;9.318;2023-05-18T04:24:12;8.60;62.50
1337;DHT22;662;48.814;9.318;2023-05-18T04:26:39;8.50;62.50
1337;DHT22;662;48.814;9.318;2023-05-18T04:29:09;8.60;62.70
1337;DHT22;662;48.814;9.318;2023-05-18T04:31:37;8.60;62.70
1337;DHT22;662;48.814;9.318;2023-05-18T04:34:06;8.70;62.70
1337;DHT22;662;48.814;9.318;2023-05-18T04:36:33;8.60;62.30
1337;DHT22;662;48.814;9.318;2023-05-18T04:39:00;8.70;62.30
1337;DHT22;662;48.814;9.318;2023-05-18T04:41:32;8.70;62.20
1337;DHT22;662;48.814;9.318;2023-05-18T04:43:58;8.70;62.20
1337;DHT22;662;48.814;9.318;2023-05-18T04:46:25;8.80;62.40
1337;DHT22;662;48.814;9.318;2023-05-18T04:48:51;8.80;62.50
1337;DHT22;662;48.814;9.318;2023-05-18T04:51:18;8.80;62.40
1337;DHT22;662;48.814;9.318;2023-05-18T04:53:46;8.90;62.50
1337;DHT22;662;48.814;9.318;2023-05-18T04:56:20;8.90;62.30
1337;DHT22;662;48.814;9.318;2023-05-18T04:58:47;8.90;62.20
1337;DHT22;662;48.814;9.318;2023-05-18T05:01:13;8.90;62.20
1337;DHT22;662;48.814;9.318;2023-05-18T05:03:43;8.90;62.10
1337;DHT22;662;48.814;9.318;2023-05-18T05:06:09;8.90;62.00
1337;DHT22;662;48.814;9.318;2023-05-18T05:08:36;8.90;62.10
1337;DHT22;662;48.814;9.318;2023-05-18T05:11:03;8.90;62.10
1337;DHT22;662;48.814;9.318;2023-05-18T05:13:28;8.90;62.10
1337;DHT22;662;48.814;9.318;2023-05-18T05:15:54;9.00;62.20
1337;DHT22;662;48.814;9.318;2023-05-18T05:18:20;9.00;62.30
1337;DHT22;662;48.814;9.318;2023-05-18T05:20:47;9.00;62.40
1337;DHT22;662;48.814;9.318;2023-05-18T05:23:12;9.10;62.60
1337;DHT22;662;48.814;9.318;2023-05-18T05:25:38;9.10;62.60
1337;DHT22;662;48.814;9.318;2023-05-18T05:28:04;9.10;62.70
1337;DHT22;662;48.814;9.318;2023-05-18T05:30:29;9.20;62.80
1337;DHT22;662;48.814;9.318;2023-05-18T05:32:55;9.20;62.90
1337;DHT22;662;48.814;9.318;2023-05-18T05:35:21;9.30;63.00
1337;DHT22;662;48.814;9.318;2023-05-18T05:37:46;9.40;63.10
1337;DHT22;662;48.814;9.318;2023-05-18T05:40:12;9.40;63.00
1337;DHT22;662;48.814;9.318;2023-05-18T05:42:38;9.50;63.10
1337;DHT22;662;48.814;9.318;2023-05-18T05:45:04;9.60;63.10
1337;DHT22;662;48.814;9.318;2023-05-18T05:47:30;9.70;63.20
1337;DHT22;662;48.814;9.318;2023-05-18T05:49:56;9.70;63.10
1337;DHT22;662;48.814;9.318;2023-05-18T05:52:21;9.80;63.10
1337;DHT22;662;48.814;9.318;2023-05-18T05:54:47;9.90;63.10
1337;DHT22;662;48.814;9.318;2023-05-18T05:57:13;9.90;62.90
1337;DHT22;662;48.814;9.318;2023-05-18T05:59:38;10.00;61.60
1337;DHT22;662;48.814;9.318;2023-05-18T06:02:04;10.10;61.50
1337;DHT22;662;48.814;9.318;2023-05-18T06:04:29;10.20;61.30
1337;DHT22;662;48.814;9.318;2023-05-18T06:06:55;10.30;61.00
1337;DHT22;662;48.814;9.318;2023-05-18T06:09:21;10.40;60.70
1337;DHT22;662;48.814;9.318;2023-05-18T06:11:47;10.40;60.30
1337;DHT22;662;48.814;9.318;2023-05-18T06:14:14;10.50;59.90
1337;DHT22;662;48.814;9.318;2023-05-18T06:16:39;10.60;59.80
1337;DHT22;662;48.814;9.318;2023-05-18T06:19:05;10.70;59.40
1337;DHT22;662;48.814;9.318;2023-05-18T06:21:31;10.80;59.10
1337;DHT22;662;48.814;9.318;2023-05-18T06:23:56;10.90;58.80
1337;DHT22;662;48.814;9.318;2023-05-18T06:26:22;10.90;58.40
1337;DHT22;662;48.814;9.318;2023-05-18T06:28:48;11.00;58.00
1337;DHT22;662;48.814;9.318;2023-05-18T06:31:14;11.10;57.70
1337;DHT22;662;48.814;9.318;2023-05-18T06:33:41;11.10;57.60
1337;DHT22;662;48.814;9.318;2023-05-18T06:36:07;11.20;57.50
1337;DHT22;662;48.814;9.318;2023-05-18T06:38:33;11.30;57.40
1337;DHT22;662;48.814;9.318;2023-05-18T06:40:58;11.40;57.20
1337;DHT22;662;48.814;9.318;2023-05-18T06:43:24;11.40;56.90
1337;DHT22;662;48.814;9.318;2023-05-18T06:45:55;11.50;57.00
1337;DHT22;662;48.814;9.318;2023-05-18T06:48:24;11.60;57.00
1337;DHT22;662;48.814;9.318;2023-05-18T06:50:50;11.70;57.00
1337;DHT22;662;48.814;9.318;2023-05-18T06:53:15;11.80;56.90
1337;DHT22;662;48.814;9.318;2023-05-18T06:55:41;11.80;56.60
1337;DHT22;662;48.814;9.318;2023-05-18T06:58:06;11.90;56.60
1337;DHT22;662;48.814;9.318;2023-05-18T07:00:32;12.00;56.40
1337;DHT22;662;48.814;9.318;2023-05-18T07:02:58;12.10;56.30
1337;DHT22;662;48.814;9.318;2023-05-18T07:05:24;12.20;56.20
1337;DHT22;662;48.814;9.318;2023-05-18T07:07:50;12.30;56.20
1337;DHT22;662;48.814;9.318;2023-05-18T07:10:15;12.30;55.80
1337;DHT22;662;48.814;9.318;2023-05-18T07:12:41;12.40;55.60
1337;DHT22;662;48.814;9.318;2023-05-18T07:15:07;12.50;55.40
1337;DHT22;662;48.814;9.318;2023-05-18T07:17:33;12.60;55.30
1337;DHT22;662;48.814;9.318;2023-05-18T07:19:58;12.60;55.10
1337;DHT22;662;48.814;9.318;2023-05-18T07:22:24;12.70;55.10
1337;DHT22;662;48.814;9.318;2023-05-18T07:24:49;12.80;55.10
1337;DHT22;662;48.814;9.318;2023-05-18T07:27:15;12.90;55.00
1337;DHT22;662;48.814;9.318;2023-05-18T07:29:41;13.00;54.90
1337;DHT22;662;48.814;9.318;2023-05-18T07:32:06;13.10;54.80
1337;DHT22;662;48.814;9.318;2023-05-18T07:34:32;13.20;54.90
1337;DHT22;662;48.814;9.318;2023-05-18T07:36:59;13.20;54.90
1337;DHT22;662;48.814;9.318;2023-05-18T07:39:24;13.30;54.50
1337;DHT22;662;48.814;9.318;2023-05-18T07:41:54;13.40;54.30
1337;DHT22;662;48.814;9.318;2023-05-18T07:44:20;13.50;54.30
1337;DHT22;662;48.814;9.318;2023-05-18T07:46:46;13.60;54.20
1337;DHT22;662;48.814;9.318;2023-05-18T07:49:11;13.70;54.10
1337;DHT22;662;48.814;9.318;2023-05-18T07:51:37;13.80;54.00
1337;DHT22;662;48.814;9.318;2023-05-18T07:54:02;13.90;53.50
1337;DHT22;662;48.814;9.318;2023-05-18T07:56:29;14.00;53.40
1337;DHT22;662;48.814;9.318;2023-05-18T07:58:55;14.00;53.30
1337;DHT22;662;48.814;9.318;2023-05-18T08:01:21;14.10;53.10
1337;DHT22;662;48.814;9.318;2023-05-18T08:03:52;14.20;52.90
1337;DHT22;662;48.814;9.318;2023-05-18T08:06:18;14.30;53.10
1337;DHT22;662;48.814;9.318;2023-05-18T08:08:44;14.40;53.10
1337;DHT22;662;48.814;9.318;2023-05-18T08:11:09;14.50;52.80
1337;DHT22;662;48.814;9.318;2023-05-18T08:13:35;14.60;52.50
1337;DHT22;662;48.814;9.318;2023-05-18T08:16:01;14.70;52.50
1337;DHT22;662;48.814;9.318;2023-05-18T08:18:26;14.80;52.00
1337;DHT22;662;48.814;9.318;2023-05-18T08:20:52;14.90;51.70
1337;DHT22;662;48.814;9.318;2023-05-18T08:23:18;15.00;51.20
1337;DHT22;662;48.814;9.318;2023-05-18T08:25:44;15.10;50.80
1337;DHT22;662;48.814;9.318;2023-05-18T08:28:10;15.20;50.20
1337;DHT22;662;48.814;9.318;2023-05-18T08:30:35;15.20;49.60
1337;DHT22;662;48.814;9.318;2023-05-18T08:33:01;15.30;49.40
1337;DHT22;662;48.814;9.318;2023-05-18T08:35:27;15.50;49.80
1337;DHT22;662;48.814;9.318;2023-05-18T08:37:54;15.60;49.80
1337;DHT22;662;48.814;9.318;2023-05-18T08:40:21;15.70;49.30
1337;DHT22;662;48.814;9.318;2023-05-18T08:43:10;15.80;49.30
1337;DHT22;662;48.814;9.318;2023-05-18T08:45:40;16.00;49.20
1337;DHT22;662;48.814;9.318;2023-05-18T08:48:10;16.10;48.90
1337;DHT22;662;48.814;9.318;2023-05-18T08:50:37;16.20;47.80
1337;DHT22;662;48.814;9.318;2023-05-18T08:53:05;16.30;47.80
1337;DHT22;662;48.814;9.318;2023-05-18T08:55:31;16.50;47.50
1337;DHT22;662;48.814;9.318;2023-05-18T08:58:03;16.60;47.30
1337;DHT22;662;48.814;9.318;2023-05-18T09:00:29;16.60;47.10
1337;DHT22;662;48.814;9.318;2023-05-18T09:02:55;16.70;47.20
1337;DHT22;662;48.814;9.318;2023-05-18T09:05:22;16.80;46.90
1337;DHT22;662;48.814;9.318;2023-05-18T09:07:49;17.00;46.90
1337;DHT22;662;48.814;9.318;2023-05-18T09:10:16;17.10;46.80
1337;DHT22;662;48.814;9.318;2023-05-18T09:12:43;17.20;46.50
1337;DHT22;662;48.814;9.318;2023-05-18T09:15:14;17.40;47.00
1337;DHT22;662;48.814;9.318;2023-05-18T09:17:40;17.60;46.70
1337;DHT22;662;48.814;9.318;2023-05-18T09:20:06;17.90;45.90
1337;DHT22;662;48.814;9.318;2023-05-18T09:22:33;18.00;45.20
1337;DHT22;662;48.814;9.318;2023-05-18T09:25:07;18.20;44.50
1337;DHT22;662;48.814;9.318;2023-05-18T09:27:33;18.30;43.80
1337;DHT22;662;48.814;9.318;2023-05-18T09:29:58;18.30;42.40
1337;DHT22;662;48.814;9.318;2023-05-18T09:32:24;18.40;42.90
1337;DHT22;662;48.814;9.318;2023-05-18T09:34:51;18.60;43.20
1337;DHT22;662;48.814;9.318;2023-05-18T09:37:19;18.70;43.00
1337;DHT22;662;48.814;9.318;2023-05-18T09:39:58;18.80;42.20
1337;DHT22;662;48.814;9.318;2023-05-18T09:42:43;18.90;41.90
1337;DHT22;662;48.814;9.318;2023-05-18T09:45:17;19.00;41.10
1337;DHT22;662;48.814;9.318;2023-05-18T09:47:43;19.30;41.80
1337;DHT22;662;48.814;9.318;2023-05-18T09:50:09;19.90;40.70
1337;DHT22;662;48.814;9.318;2023-05-18T09:52:42;20.40;39.90
1337;DHT22;662;48.814;9.318;2023-05-18T09:55:09;21.30;39.60
1337;DHT22;662;48.814;9.318;2023-05-18T09:57:40;22.30;37.30
1337;DHT22;662;48.814;9.318;2023-05-18T10:00:07;23.30;37.40
1337;DHT22;662;48.814;9.318;2023-05-18T10:02:41;23.80;35.20
1337;DHT22;662;48.814;9.318;2023-05-18T10:05:24;24.10;34.60
1337;DHT22;662;48.814;9.318;2023-05-18T10:08:00;24.10;33.30
1337;DHT22;662;48.814;9.318;2023-05-18T10:10:27;24.00;33.90
1337;DHT22;662;48.814;9.318;2023-05-18T10:12:56;24.10;33.70
1337;DHT22;662;48.814;9.318;2023-05-18T10:15:23;24.30;33.80
1337;DHT22;662;48.814;9.318;2023-05-18T10:17:50;24.70;32.00
1337;DHT22;662;48.814;9.318;2023-05-18T10:20:20;25.20;31.40
1337;DHT22;662;48.814;9.318;2023-05-18T10:22:49;25.50;30.10
1337;DHT22;662;48.814;9.318;2023-05-18T10:25:20;25.90;31.40
1337;DHT22;662;48.814;9.318;2023-05-18T10:27:50;26.40;30.80
1337;DHT22;662;48.814;9.318;2023-05-18T10:30:20;26.90;30.30
1337;DHT22;662;48.814;9.318;2023-05-18T10:32:47;27.00;29.40
1337;DHT22;662;48.814;9.318;2023-05-18T10:35:14;26.80;29.10
1337;DHT22;662;48.814;9.318;2023-05-18T10:37:44;26.80;28.70
1337;DHT22;662;48.814;9.318;2023-05-18T10:40:12;27.10;28.00
1337;DHT22;662;48.814;9.318;2023-05-18T10:42:39;27.20;27.90
1337;DHT22;662;48.814;9.318;2023-05-18T10:45:06;27.10;27.70
1337;DHT22;662;48.814;9.318;2023-05-18T10:47:35;26.80;28.30
1337;DHT22;662;48.814;9.318;2023-05-18T10:50:04;26.90;29.10
1337;DHT22;662;48.814;9.318;2023-05-18T10:52:37;27.00;27.80
1337;DHT22;662;48.814;9.318;2023-05-18T10:55:04;27.10;28.20
1337;DHT22;662;48.814;9.318;2023-05-18T10:57:39;27.40;27.90
1337;DHT22;662;48.814;9.318;2023-05-18T11:00:08;27.60;27.60
1337;DHT22;662;48.814;9.318;2023-05-18T11:02:37;27.80;27.50
1337;DHT22;662;48.814;9.318;2023-05-18T11:05:05;28.10;27.50
1337;DHT22;662;48.814;9.318;2023-05-18T11:07:31;28.20;27.40
1337;DHT22;662;48.814;9.318;2023-05-18T11:10:00;28.40;26.70
1337;DHT22;662;48.814;9.318;2023-05-18T11:12:26;28.40;26.90
1337;DHT22;662;48.814;9.318;2023-05-18T11:14:53;28.60;27.00
1337;DHT22;662;48.814;9.318;2023-05-18T11:17:22;28.90;26.70
1337;DHT22;662;48.814;9.318;2023-05-18T11:23:00;28.60;26.00
1337;DHT22;662;48.814;9.318;2023-05-18T11:36:08;28.00;27.00
1337;DHT22;662;48.814;9.318;2023-05-18T11:41:33;27.90;27.30
1337;DHT22;662;48.814;9.318;2023-05-18T11:46:31;27.20;27.70
1337;DHT22;662;48.814;9.318;2023-05-18T11:49:08;27.50;28.60
1337;DHT22;662;48.814;9.318;2023-05-18T11:54:22;28.60;26.60
1337;DHT22;662;48.814;9.318;2023-05-18T11:56:50;28.40;25.90
1337;DHT22;662;48.814;9.318;2023-05-18T11:59:16;27.80;27.00
1337;DHT22;662;48.814;9.318;2023-05-18T12:01:42;27.70;27.70
1337;DHT22;662;48.814;9.318;2023-05-18T12:04:08;28.00;27.80
1337;DHT22;662;48.814;9.318;2023-05-18T12:06:36;28.40;27.20
1337;DHT22;662;48.814;9.318;2023-05-18T12:09:02;28.70;26.10
1337;DHT22;662;48.814;9.318;2023-05-18T12:11:30;28.60;26.30
1337;DHT22;662;48.814;9.318;2023-05-18T12:13:56;28.70;26.30
1337;DHT22;662;48.814;9.318;2023-05-18T12:16:22;28.90;26.30
1337;DHT22;662;48.814;9.318;2023-05-18T12:18:50;29.10;26.20
1337;DHT22;662;48.814;9.318;2023-05-18T12:21:22;29.30;25.60
1337;DHT22;662;48.814;9.318;2023-05-18T12:23:57;29.10;25.70
1337;DHT22;662;48.814;9.318;2023-05-18T12:26:23;28.50;26.00
1337;DHT22;662;48.814;9.318;2023-05-18T12:28:51;28.60;26.60
1337;DHT22;662;48.814;9.318;2023-05-18T12:31:17;29.00;26.80
1337;DHT22;662;48.814;9.318;2023-05-18T12:33:43;29.10;25.50
1337;DHT22;662;48.814;9.318;2023-05-18T12:36:09;29.00;26.10
1337;DHT22;662;48.814;9.318;2023-05-18T12:38:36;28.30;25.80
1337;DHT22;662;48.814;9.318;2023-05-18T12:41:01;27.50;26.60
1337;DHT22;662;48.814;9.318;2023-05-18T12:43:35;27.00;27.60
1337;DHT22;662;48.814;9.318;2023-05-18T12:46:04;27.20;28.40
1337;DHT22;662;48.814;9.318;2023-05-18T12:48:43;27.30;27.40
1337;DHT22;662;48.814;9.318;2023-05-18T12:51:17;27.00;27.70
1337;DHT22;662;48.814;9.318;2023-05-18T12:53:43;27.10;28.20
1337;DHT22;662;48.814;9.318;2023-05-18T12:56:09;27.20;28.10
1337;DHT22;662;48.814;9.318;2023-05-18T12:58:36;27.10;27.50
1337;DHT22;662;48.814;9.318;2023-05-18T13:01:11;26.90;28.20
1337;DHT22;662;48.814;9.318;2023-05-18T13:03:40;27.30;28.70
1337;DHT22;662;48.814;9.318;2023-05-18T13:06:07;27.60;28.10
1337;DHT22;662;48.814;9.318;2023-05-18T13:08:34;27.70;27.80
1337;DHT22;662;48.814;9.318;2023-05-18T13:13:27;27.90;27.90
1337;DHT22;662;48.814;9.318;2023-05-18T13:15:53;28.10;27.60
1337;DHT22;662;48.814;9.318;2023-05-18T13:18:19;28.30;27.20
1337;DHT22;662;48.814;9.318;2023-05-18T13:20:48;28.60;27.10
1337;DHT22;662;48.814;9.318;2023-05-18T13:23:16;28.60;26.40
1337;DHT22;662;48.814;9.318;2023-05-18T13:25:43;28.10;27.10
1337;DHT22;662;48.814;9.318;2023-05-18T13:28:10;27.50;26.60
1337;DHT22;662;48.814;9.318;2023-05-18T13:30:36;26.80;27.40
1337;DHT22;662;48.814;9.318;2023-05-18T13:33:03;26.20;27.70
1337;DHT22;662;48.814;9.318;2023-05-18T13:35:29;26.20;28.70
1337;DHT22;662;48.814;9.318;2023-05-18T13:37:54;26.30;28.30
1337;DHT22;662;48.814;9.318;2023-05-18T13:40:21;26.40;28.30
1337;DHT22;662;48.814;9.318;2023-05-18T13:42:48;26.00;27.00
1337;DHT22;662;48.814;9.318;2023-05-18T13:45:14;25.60;27.50
1337;DHT22;662;48.814;9.318;2023-05-18T13:47:40;25.70;28.40
1337;DHT22;662;48.814;9.318;2023-05-18T13:50:07;26.10;28.80
1337;DHT22;662;48.814;9.318;2023-05-18T13:52:36;26.30;28.10
1337;DHT22;662;48.814;9.318;2023-05-18T13:55:03;26.30;28.00
1337;DHT22;662;48.814;9.318;2023-05-18T13:57:29;26.50;27.80
1337;DHT22;662;48.814;9.318;2023-05-18T13:59:57;26.70;28.20
1337;DHT22;662;48.814;9.318;2023-05-18T14:02:40;26.90;28.20
1337;DHT22;662;48.814;9.318;2023-05-18T14:05:07;27.30;28.20
1337;DHT22;662;48.814;9.318;2023-05-18T14:07:34;27.40;27.20
1337;DHT22;662;48.814;9.318;2023-05-18T14:10:00;27.50;27.20
1337;DHT22;662;48.814;9.318;2023-05-18T14:12:27;27.30;27.20
1337;DHT22;662;48.814;9.318;2023-05-18T14:14:52;26.70;27.40
1337;DHT22;662;48.814;9.318;2023-05-18T14:17:18;26.00;27.70
1337;DHT22;662;48.814;9.318;2023-05-18T14:19:43;25.30;28.00
1337;DHT22;662;48.814;9.318;2023-05-18T14:22:09;24.80;28.70
1337;DHT22;662;48.814;9.318;2023-05-18T14:24:35;24.50;29.50
1337;DHT22;662;48.814;9.318;2023-05-18T14:27:00;24.50;29.80
1337;DHT22;662;48.814;9.318;2023-05-18T14:29:26;24.70;30.00
1337;DHT22;662;48.814;9.318;2023-05-18T14:31:52;24.90;30.00
1337;DHT22;662;48.814;9.318;2023-05-18T14:34:17;25.10;30.00
1337;DHT22;662;48.814;9.318;2023-05-18T14:36:43;25.50;29.60
1337;DHT22;662;48.814;9.318;2023-05-18T14:39:09;25.70;29.20
1337;DHT22;662;48.814;9.318;2023-05-18T14:41:34;25.70;28.70
1337;DHT22;662;48.814;9.318;2023-05-18T14:44:00;25.70;28.70
1337;DHT22;662;48.814;9.318;2023-05-18T14:46:29;25.80;29.00
1337;DHT22;662;48.814;9.318;2023-05-18T14:48:55;26.00;28.80
1337;DHT22;662;48.814;9.318;2023-05-18T14:51:27;25.80;28.00
1337;DHT22;662;48.814;9.318;2023-05-18T14:53:52;25.50;28.30
1337;DHT22;662;48.814;9.318;2023-05-18T14:56:18;25.40;28.50
1337;DHT22;662;48.814;9.318;2023-05-18T14:58:44;25.20;28.80
1337;DHT22;662;48.814;9.318;2023-05-18T15:01:09;25.20;29.00
1337;DHT22;662;48.814;9.318;2023-05-18T15:03:35;25.30;29.60
1337;DHT22;662;48.814;9.318;2023-05-18T15:06:01;25.40;29.10
1337;DHT22;662;48.814;9.318;2023-05-18T15:08:26;25.60;29.20
1337;DHT22;662;48.814;9.318;2023-05-18T15:10:52;25.70;29.20
1337;DHT22;662;48.814;9.318;2023-05-18T15:13:18;25.50;29.10
1337;DHT22;662;48.814;9.318;2023-05-18T15:15:44;25.20;29.20
1337;DHT22;662;48.814;9.318;2023-05-18T15:18:10;24.90;29.60
1337;DHT22;662;48.814;9.318;2023-05-18T15:20:37;24.50;29.10
1337;DHT22;662;48.814;9.318;2023-05-18T15:23:03;24.00;29.30
1337;DHT22;662;48.814;9.318;2023-05-18T15:25:29;23.60;29.70
1337;DHT22;662;48.814;9.318;2023-05-18T15:27:55;23.30;30.30
1337;DHT22;662;48.814;9.318;2023-05-18T15:30:21;23.00;30.50
1337;DHT22;662;48.814;9.318;2023-05-18T15:32:47;22.80;31.50
1337;DHT22;662;48.814;9.318;2023-05-18T15:35:13;22.60;32.40
1337;DHT22;662;48.814;9.318;2023-05-18T15:37:40;22.40;32.80
1337;DHT22;662;48.814;9.318;2023-05-18T15:40:07;22.10;32.90
1337;DHT22;662;48.814;9.318;2023-05-18T15:42:32;21.90;33.10
1337;DHT22;662;48.814;9.318;2023-05-18T15:44:58;21.70;33.40
1337;DHT22;662;48.814;9.318;2023-05-18T15:47:24;21.40;33.70
1337;DHT22;662;48.814;9.318;2023-05-18T15:49:50;21.30;34.00
1337;DHT22;662;48.814;9.318;2023-05-18T15:52:16;21.20;34.10
1337;DHT22;662;48.814;9.318;2023-05-18T15:54:41;21.00;34.20
1337;DHT22;662;48.814;9.318;2023-05-18T15:57:07;20.90;34.50
1337;DHT22;662;48.814;9.318;2023-05-18T15:59:33;20.80;34.80
1337;DHT22;662;48.814;9.318;2023-05-18T16:01:58;20.60;35.10
1337;DHT22;662;48.814;9.318;2023-05-18T16:04:24;20.50;34.80
1337;DHT22;662;48.814;9.318;2023-05-18T16:06:50;20.40;34.90
1337;DHT22;662;48.814;9.318;2023-05-18T16:09:15;20.30;35.00
1337;DHT22;662;48.814;9.318;2023-05-18T16:11:41;20.20;35.20
1337;DHT22;662;48.814;9.318;2023-05-18T16:14:06;20.20;35.30
1337;DHT22;662;48.814;9.318;2023-05-18T16:16:32;20.10;35.30
1337;DHT22;662;48.814;9.318;2023-05-18T16:18:58;20.10;35.60
1337;DHT22;662;48.814;9.318;2023-05-18T16:21:25;20.10;35.70
1337;DHT22;662;48.814;9.318;2023-05-18T16:23:50;20.10;36.00
1337;DHT22;662;48.814;9.318;2023-05-18T16:26:16;20.10;36.20
1337;DHT22;662;48.814;9.318;2023-05-18T16:28:42;20.00;36.30
1337;DHT22;662;48.814;9.318;2023-05-18T16:31:07;20.00;36.40
1337;DHT22;662;48.814;9.318;2023-05-18T16:33:36;20.00;36.50
1337;DHT22;662;48.814;9.318;2023-05-18T16:36:02;19.90;36.40
1337;DHT22;662;48.814;9.318;2023-05-18T16:38:27;19.80;36.50
1337;DHT22;662;48.814;9.318;2023-05-18T16:40:53;19.80;36.60
1337;DHT22;662;48.814;9.318;2023-05-18T16:43:19;19.80;37.00
1337;DHT22;662;48.814;9.318;2023-05-18T16:45:44;19.80;37.20
1337;DHT22;662;48.814;9.318;2023-05-18T16:48:10;19.70;37.20
1337;DHT22;662;48.814;9.318;2023-05-18T16:50:36;19.70;37.40
1337;DHT22;662;48.814;9.318;2023-05-18T16:53:02;19.70;37.60